createdAt,value
2022-11-28T00:00:31.837Z,19.9
2022-11-28T00:02:15.553Z,19.9
2022-11-28T00:03:59.222Z,19.9
2022-11-28T00:05:42.953Z,19.9
2022-11-28T00:07:26.654Z,19.9
2022-11-28T00:09:10.355Z,19.9
2022-11-28T00:10:54.062Z,19.9
2022-11-28T00:12:37.749Z,19.9
2022-11-28T00:14:21.455Z,19.9
2022-11-28T00:16:05.161Z,19.9
2022-11-28T00:17:48.853Z,19.8
2022-11-28T00:19:32.601Z,19.9
2022-11-28T00:21:16.269Z,19.8
2022-11-28T00:22:59.970Z,19.8
2022-11-28T00:24:43.648Z,19.8
2022-11-28T00:26:27.368Z,19.8
2022-11-28T00:28:11.071Z,19.8
2022-11-28T00:29:54.800Z,19.8
2022-11-28T00:31:38.526Z,19.8
2022-11-28T00:33:22.158Z,19.8
2022-11-28T00:35:05.880Z,19.8
2022-11-28T00:36:49.578Z,19.8
2022-11-28T00:38:33.270Z,19.8
2022-11-28T00:40:16.985Z,19.8
2022-11-28T00:42:00.734Z,19.8
2022-11-28T00:43:44.395Z,19.8
2022-11-28T00:45:28.084Z,19.8
2022-11-28T00:47:11.781Z,19.8
2022-11-28T00:48:55.519Z,19.8
2022-11-28T00:50:39.185Z,19.8
2022-11-28T00:52:22.899Z,19.8
2022-11-28T00:54:06.597Z,19.8
2022-11-28T00:55:50.285Z,19.8
2022-11-28T00:57:34.011Z,19.8
2022-11-28T00:59:17.695Z,19.8
2022-11-28T01:01:01.390Z,19.8
2022-11-28T01:02:45.150Z,19.8
2022-11-28T01:04:28.817Z,19.8
2022-11-28T01:06:12.623Z,19.8
2022-11-28T01:07:56.195Z,19.8
2022-11-28T01:09:39.897Z,19.8
2022-11-28T01:11:23.622Z,19.8
2022-11-28T01:13:07.315Z,19.8
2022-11-28T01:14:51.058Z,19.8
2022-11-28T01:16:34.725Z,19.8
2022-11-28T01:18:18.421Z,19.8
2022-11-28T01:20:02.117Z,19.8
2022-11-28T01:21:45.881Z,19.8
2022-11-28T01:23:29.570Z,19.8
2022-11-28T01:25:13.211Z,19.8
2022-11-28T01:26:56.964Z,19.8
2022-11-28T01:28:40.626Z,19.8
2022-11-28T01:30:24.315Z,19.8
2022-11-28T01:32:08.040Z,19.8
2022-11-28T01:33:51.730Z,19.8
2022-11-28T01:35:54.455Z,19.8
2022-11-28T01:37:19.180Z,19.8
2022-11-28T01:39:02.830Z,19.8
2022-11-28T01:40:46.527Z,19.8
2022-11-28T01:42:30.248Z,19.8
2022-11-28T01:44:13.944Z,19.8
2022-11-28T01:45:57.643Z,19.8
2022-11-28T01:47:41.347Z,19.8
2022-11-28T01:49:25.072Z,19.8
2022-11-28T01:51:08.766Z,19.8
2022-11-28T01:52:52.433Z,19.8
2022-11-28T01:54:36.141Z,19.8
2022-11-28T01:56:19.850Z,19.8
2022-11-28T01:58:03.681Z,19.8
2022-11-28T01:59:47.279Z,19.8
2022-11-28T02:01:30.952Z,19.8
2022-11-28T02:03:14.663Z,19.8
2022-11-28T02:04:58.365Z,19.8
2022-11-28T02:06:42.108Z,19.8
2022-11-28T02:08:25.765Z,19.8
2022-11-28T02:10:09.464Z,19.8
2022-11-28T02:11:53.201Z,19.8
2022-11-28T02:13:36.889Z,19.8
2022-11-28T02:15:20.572Z,19.8
2022-11-28T02:17:04.267Z,19.8
2022-11-28T02:18:47.982Z,19.8
2022-11-28T02:20:31.693Z,19.8
2022-11-28T02:22:15.371Z,19.8
2022-11-28T02:23:59.076Z,19.8
2022-11-28T02:25:42.778Z,19.8
2022-11-28T02:27:26.492Z,19.8
2022-11-28T02:29:10.173Z,19.8
2022-11-28T02:30:53.975Z,19.8
2022-11-28T02:32:37.590Z,19.8
2022-11-28T02:34:21.301Z,19.8
2022-11-28T02:36:05.072Z,19.8
2022-11-28T02:37:48.687Z,19.8
2022-11-28T02:39:32.452Z,19.8
2022-11-28T02:41:16.093Z,19.7
2022-11-28T02:42:59.791Z,19.7
2022-11-28T02:44:43.493Z,19.7
2022-11-28T02:46:27.209Z,19.7
2022-11-28T02:48:10.917Z,19.7
2022-11-28T02:49:54.621Z,19.7
2022-11-28T02:51:38.314Z,19.7
2022-11-28T02:53:22.076Z,19.7
2022-11-28T02:55:05.702Z,19.7
2022-11-28T02:56:49.433Z,19.7
2022-11-28T02:58:33.108Z,19.7
2022-11-28T03:00:16.824Z,19.7
2022-11-28T03:02:00.567Z,19.7
2022-11-28T03:03:44.243Z,19.7
2022-11-28T03:05:27.922Z,19.7
2022-11-28T03:07:11.668Z,19.7
2022-11-28T03:08:55.334Z,19.7
2022-11-28T03:10:39.054Z,19.7
2022-11-28T03:12:22.727Z,19.7
2022-11-28T03:14:06.443Z,19.7
2022-11-28T03:15:50.136Z,19.7
2022-11-28T03:17:33.845Z,19.7
2022-11-28T03:19:17.547Z,19.7
2022-11-28T03:21:01.249Z,19.7
2022-11-28T03:22:44.957Z,19.7
2022-11-28T03:24:28.651Z,19.7
2022-11-28T03:26:12.358Z,19.8
2022-11-28T03:27:56.046Z,19.7
2022-11-28T03:29:39.758Z,19.7
2022-11-28T03:31:23.476Z,19.7
2022-11-28T03:33:07.174Z,19.8
2022-11-28T03:34:50.848Z,19.8
2022-11-28T03:36:34.556Z,19.8
2022-11-28T03:38:18.271Z,19.8
2022-11-28T03:40:02.004Z,19.7
2022-11-28T03:41:45.657Z,19.7
2022-11-28T03:43:29.369Z,19.8
2022-11-28T03:45:13.079Z,19.8
2022-11-28T03:46:56.790Z,19.8
2022-11-28T03:48:40.464Z,19.8
2022-11-28T03:50:24.173Z,19.8
2022-11-28T03:52:07.950Z,19.8
2022-11-28T03:53:51.589Z,19.8
2022-11-28T03:55:35.280Z,19.8
2022-11-28T03:57:18.978Z,19.8
2022-11-28T03:59:02.668Z,19.8
2022-11-28T04:00:46.382Z,19.8
2022-11-28T04:02:30.077Z,19.8
2022-11-28T04:04:13.782Z,19.8
2022-11-28T04:05:57.510Z,19.8
2022-11-28T04:07:41.195Z,19.8
2022-11-28T04:09:24.879Z,19.8
2022-11-28T04:12:52.292Z,19.8
2022-11-28T04:14:35.980Z,19.8
2022-11-28T04:16:19.681Z,19.8
2022-11-28T08:44:13.994Z,20.2
2022-11-28T08:45:57.381Z,20.2
2022-11-28T08:47:41.235Z,20.2
2022-11-28T08:49:24.878Z,20.2
2022-11-28T08:51:08.510Z,20.2
2022-11-28T08:52:52.227Z,20.2
2022-11-28T08:54:35.879Z,20.3
2022-11-28T08:56:19.559Z,20.3
2022-11-28T08:58:03.354Z,20.3
2022-11-28T08:59:47.038Z,20.3
2022-11-28T09:01:30.743Z,20.3
2022-11-28T09:03:14.492Z,20.3
2022-11-28T09:04:58.187Z,20.3
2022-11-28T09:06:41.847Z,20.3
2022-11-28T09:08:25.474Z,20.3
2022-11-28T09:10:09.249Z,20.3
2022-11-28T09:11:52.914Z,20.3
2022-11-28T09:13:36.661Z,20.3
2022-11-28T09:15:20.472Z,20.3
2022-11-28T09:17:04.066Z,20.4
2022-11-28T09:18:47.806Z,20.4
2022-11-28T09:20:31.280Z,20.4
2022-11-28T09:22:15.113Z,20.4
2022-11-28T09:23:58.821Z,20.4
2022-11-28T09:25:42.527Z,20.4
2022-11-28T09:27:26.275Z,20.4
2022-11-28T09:29:09.921Z,20.4
2022-11-28T09:30:53.492Z,20.4
2022-11-28T09:32:37.276Z,20.4
2022-11-28T09:34:21.025Z,20.4
2022-11-28T09:36:04.672Z,20.4
2022-11-28T09:37:48.496Z,20.4
2022-11-28T09:39:32.090Z,20.4
2022-11-28T09:41:15.904Z,20.4
2022-11-28T09:42:59.545Z,20.4
2022-11-28T09:44:43.213Z,20.4
2022-11-28T09:46:26.819Z,20.4
2022-11-28T09:48:10.623Z,20.4
2022-11-28T09:49:54.230Z,20.4
2022-11-28T09:51:38.068Z,20.4
2022-11-28T09:53:21.697Z,20.4
2022-11-28T09:55:05.322Z,20.4
2022-11-28T09:56:49.082Z,20.4
2022-11-28T09:58:32.839Z,20.4
2022-11-28T10:00:16.572Z,20.4
2022-11-28T10:02:00.155Z,20.4
2022-11-28T10:03:43.844Z,20.4
2022-11-28T10:05:27.499Z,20.4
2022-11-28T10:07:11.245Z,20.4
2022-11-28T10:08:54.918Z,20.4
2022-11-28T10:10:38.775Z,20.4
2022-11-28T10:12:22.318Z,20.4
2022-11-28T10:14:06.012Z,20.4
2022-11-28T10:15:49.861Z,20.4
2022-11-28T10:17:33.497Z,20.4
2022-11-28T10:19:17.191Z,20.4
2022-11-28T10:21:00.905Z,20.4
2022-11-28T10:22:44.508Z,20.4
2022-11-28T10:24:28.286Z,20.4
2022-11-28T10:26:12.128Z,20.4
2022-11-28T10:27:55.746Z,20.4
2022-11-28T10:29:39.319Z,20.4
2022-11-28T10:31:23.128Z,20.4
2022-11-28T10:33:06.928Z,20.4
2022-11-28T10:34:50.430Z,20.5
2022-11-28T10:36:34.313Z,20.5
2022-11-28T10:38:17.959Z,20.5
2022-11-28T10:40:01.707Z,20.5
2022-11-28T10:41:45.293Z,20.5
2022-11-28T10:43:29.130Z,20.5
2022-11-28T10:45:12.738Z,20.5
2022-11-28T10:46:56.511Z,20.5
2022-11-28T10:48:40.277Z,20.5
2022-11-28T10:50:23.806Z,20.5
2022-11-28T10:52:07.598Z,20.5
2022-11-28T10:53:51.313Z,20.5
2022-11-28T10:55:34.997Z,20.5
2022-11-28T10:57:18.690Z,20.6
2022-11-28T10:59:02.433Z,20.6
2022-11-28T11:00:46.074Z,20.6
2022-11-28T11:02:29.843Z,20.6
2022-11-28T11:04:13.455Z,20.6
2022-11-28T11:05:57.239Z,20.6
2022-11-28T11:07:40.788Z,20.6
2022-11-28T11:09:24.477Z,20.6
2022-11-28T11:11:08.184Z,20.6
2022-11-28T11:12:51.911Z,20.6
2022-11-28T11:14:35.582Z,20.6
2022-11-28T11:16:19.290Z,20.6
2022-11-28T11:18:02.990Z,20.6
2022-11-28T11:19:46.722Z,20.6
2022-11-28T11:21:30.398Z,20.6
2022-11-28T11:23:14.147Z,20.6
2022-11-28T11:24:57.896Z,20.6
2022-11-28T11:26:41.497Z,20.6
2022-11-28T11:28:25.207Z,20.7
2022-11-28T11:30:08.896Z,20.7
2022-11-28T11:31:52.610Z,20.7
2022-11-28T11:33:36.404Z,20.7
2022-11-28T11:35:20.142Z,20.8
2022-11-28T11:37:03.707Z,20.8
2022-11-28T11:38:47.477Z,20.8
2022-11-28T11:40:31.101Z,20.8
2022-11-28T11:42:14.866Z,20.8
2022-11-28T11:43:58.509Z,20.8
2022-11-28T11:45:42.203Z,20.8
2022-11-28T11:47:25.909Z,20.8
2022-11-28T11:49:09.721Z,20.8
2022-11-28T11:50:53.435Z,20.8
2022-11-28T11:52:37.160Z,20.8
2022-11-28T11:54:20.859Z,20.8
2022-11-28T11:56:04.571Z,20.8
2022-11-28T11:57:48.252Z,20.8
2022-11-28T11:59:31.990Z,20.8
2022-11-28T12:01:15.685Z,20.8
2022-11-28T12:02:59.456Z,20.9
2022-11-28T12:04:42.932Z,20.9
2022-11-28T12:06:26.761Z,20.8
2022-11-28T12:08:10.408Z,20.9
2022-11-28T12:09:54.163Z,20.9
2022-11-28T12:11:37.887Z,20.8
2022-11-28T12:13:21.601Z,20.8
2022-11-28T12:15:05.323Z,20.8
2022-11-28T12:16:49.000Z,20.8
2022-11-28T12:18:34.531Z,20.8
2022-11-28T12:20:16.413Z,20.8
2022-11-28T12:22:00.095Z,20.8
2022-11-28T12:23:43.805Z,20.8
2022-11-28T12:27:11.190Z,20.8
2022-11-28T12:28:54.730Z,20.8
2022-11-28T12:30:38.433Z,20.8
2022-11-28T12:32:22.183Z,20.9
2022-11-28T12:34:05.983Z,20.9
2022-11-28T12:35:49.739Z,20.9
2022-11-28T12:37:33.252Z,20.9
2022-11-28T12:39:17.114Z,21
2022-11-28T12:41:00.655Z,21
2022-11-28T12:42:44.323Z,21
2022-11-28T12:44:28.029Z,21.1
2022-11-28T12:46:11.761Z,21
2022-11-28T12:47:55.472Z,21.1
2022-11-28T12:49:39.244Z,21.1
2022-11-28T12:51:22.891Z,21.1
2022-11-28T12:53:06.547Z,21.2
2022-11-28T12:54:50.244Z,21.2
2022-11-28T12:56:34.044Z,21.2
2022-11-28T12:58:17.853Z,21.2
2022-11-28T13:00:01.564Z,21.1
2022-11-28T13:01:45.070Z,21.2
2022-11-28T13:03:28.937Z,21.2
2022-11-28T13:05:12.478Z,21.2
2022-11-28T13:06:56.378Z,21.2
2022-11-28T13:08:39.889Z,21.2
2022-11-28T13:10:23.651Z,21.2
2022-11-28T13:12:07.400Z,21.2
2022-11-28T13:13:50.956Z,21.2
2022-11-28T13:15:34.664Z,21.2
2022-11-28T13:17:18.622Z,21.2
2022-11-28T13:19:02.106Z,21.2
2022-11-28T13:20:45.780Z,21.2
2022-11-28T13:22:29.572Z,21.2
2022-11-28T13:24:13.177Z,21.2
2022-11-28T13:25:56.871Z,21.2
2022-11-28T13:27:40.555Z,21.2
2022-11-28T13:29:24.265Z,21.2
2022-11-28T13:31:08.145Z,21.2
2022-11-28T13:32:51.752Z,21.2
2022-11-28T13:34:35.439Z,21.2
2022-11-28T13:36:19.116Z,21.2
2022-11-28T13:38:02.767Z,21.2
2022-11-28T13:39:46.481Z,21.1
2022-11-28T13:41:30.349Z,21.1
2022-11-28T13:44:57.688Z,21.1
2022-11-28T13:46:41.329Z,21.1
2022-11-28T13:48:25.017Z,21.1
2022-11-28T13:50:08.708Z,21.1
2022-11-28T13:51:52.400Z,21.1
2022-11-28T13:53:36.168Z,21.1
2022-11-28T13:55:19.825Z,21.1
2022-11-28T13:57:03.695Z,21.1
2022-11-28T13:58:47.213Z,21.1
2022-11-28T14:00:30.914Z,21.1
2022-11-28T14:02:14.654Z,21
2022-11-28T14:03:58.323Z,21
2022-11-28T14:05:42.008Z,21
2022-11-28T14:07:25.709Z,21
2022-11-28T14:09:09.411Z,21
2022-11-28T14:10:53.130Z,21
2022-11-28T14:12:36.928Z,21
2022-11-28T14:14:20.520Z,20.9
2022-11-28T14:16:04.390Z,20.9
2022-11-28T14:17:48.102Z,20.9
2022-11-28T14:19:31.835Z,20.9
2022-11-28T14:21:15.328Z,20.9
2022-11-28T14:22:59.028Z,20.9
2022-11-28T14:26:26.449Z,20.8
2022-11-28T14:28:10.125Z,20.8
2022-11-28T14:29:53.835Z,20.8
2022-11-28T14:31:37.639Z,20.8
2022-11-28T14:33:21.247Z,20.8
2022-11-28T14:35:04.936Z,20.8
2022-11-28T14:36:48.650Z,20.7
2022-11-28T14:38:32.368Z,20.7
2022-11-28T14:40:16.066Z,20.7
2022-11-28T14:41:59.758Z,20.7
2022-11-28T14:43:43.461Z,20.6
2022-11-28T14:45:27.176Z,20.7
2022-11-28T14:47:10.950Z,20.6
2022-11-28T14:48:54.563Z,20.6
2022-11-28T14:50:38.274Z,20.6
2022-11-28T14:52:21.977Z,20.6
2022-11-28T14:54:05.677Z,20.6
2022-11-28T14:55:49.524Z,20.5
2022-11-28T14:57:33.077Z,20.5
2022-11-28T14:59:16.779Z,20.6
2022-11-28T15:01:00.566Z,20.6
2022-11-28T15:02:44.199Z,20.6
2022-11-28T15:06:11.720Z,20.5
2022-11-28T15:07:55.389Z,20.5
2022-11-28T15:09:39.046Z,20.5
2022-11-28T15:11:22.835Z,20.5
2022-11-28T15:13:06.544Z,20.5
2022-11-28T15:14:50.187Z,20.5
2022-11-28T15:16:33.894Z,20.5
2022-11-28T15:18:17.486Z,20.5
2022-11-28T15:20:01.188Z,20.5
2022-11-28T15:21:45.044Z,20.4
2022-11-28T15:23:28.608Z,20.4
2022-11-28T15:25:12.303Z,20.4
2022-11-28T15:26:56.007Z,20.4
2022-11-28T15:28:39.704Z,20.4
2022-11-28T15:30:23.408Z,20.4
2022-11-28T15:32:07.127Z,20.4
2022-11-28T15:33:50.831Z,20.4
2022-11-28T15:35:34.511Z,20.4
2022-11-28T15:37:18.228Z,20.4
2022-11-28T15:39:01.912Z,20.4
2022-11-28T15:40:45.627Z,20.4
2022-11-28T15:42:29.318Z,20.4
2022-11-28T15:44:13.027Z,20.4
2022-11-28T15:45:56.723Z,20.3
2022-11-28T15:47:40.422Z,20.3
2022-11-28T15:49:24.133Z,20.3
2022-11-28T15:51:07.826Z,20.3
2022-11-28T15:52:51.535Z,20.3
2022-11-28T15:54:35.230Z,20.3
2022-11-28T15:56:18.919Z,20.3
2022-11-28T15:58:02.637Z,20.3
2022-11-28T15:59:46.305Z,20.3
2022-11-28T16:01:30.043Z,20.3
2022-11-28T16:03:13.724Z,20.3
2022-11-28T16:04:57.432Z,20.3
2022-11-28T16:06:41.117Z,20.3
2022-11-28T16:08:24.830Z,20.3
2022-11-28T16:10:08.528Z,20.3
2022-11-28T16:11:52.246Z,20.3
2022-11-28T16:13:35.948Z,20.3
2022-11-28T16:15:19.639Z,20.3
2022-11-28T16:17:03.360Z,20.2
2022-11-28T16:18:47.048Z,20.2
2022-11-28T16:20:30.760Z,20.3
2022-11-28T16:22:14.454Z,20.3
2022-11-28T16:23:58.154Z,20.3
2022-11-28T16:25:41.864Z,20.3
2022-11-28T16:27:25.552Z,20.3
2022-11-28T16:29:09.252Z,20.3
2022-11-28T16:30:52.962Z,20.3
2022-11-28T16:32:36.648Z,20.3
2022-11-28T16:34:20.365Z,20.3
2022-11-28T16:36:04.054Z,20.4
2022-11-28T16:37:47.767Z,20.4
2022-11-28T16:39:31.465Z,20.4
2022-11-28T16:41:15.168Z,20.4
2022-11-28T16:42:58.853Z,20.4
2022-11-28T16:44:42.582Z,20.4
2022-11-28T16:46:26.282Z,20.4
2022-11-28T16:48:09.955Z,20.4
2022-11-28T16:49:53.680Z,20.4
2022-11-28T16:51:37.365Z,20.4
2022-11-28T16:53:21.073Z,20.5
2022-11-28T16:55:04.751Z,20.4
2022-11-28T16:56:48.482Z,20.4
2022-11-28T16:58:32.169Z,20.4
2022-11-28T17:00:15.876Z,20.5
2022-11-28T17:01:59.579Z,20.5
2022-11-28T17:03:43.275Z,20.5
2022-11-28T17:05:26.968Z,20.5
2022-11-28T17:07:10.679Z,20.5
2022-11-28T17:08:54.392Z,20.5
2022-11-28T17:10:38.087Z,20.5
2022-11-28T17:12:21.795Z,20.4
2022-11-28T17:14:05.513Z,20.4
2022-11-28T17:15:49.194Z,20.5
2022-11-28T17:17:32.909Z,20.4
2022-11-28T17:19:16.607Z,20.4
2022-11-28T17:21:00.289Z,20.4
2022-11-28T17:22:44.002Z,20.4
2022-11-28T17:24:27.714Z,20.4
2022-11-28T17:26:11.403Z,20.4
2022-11-28T17:27:55.084Z,20.4
2022-11-28T17:29:38.807Z,20.4
2022-11-28T17:31:22.517Z,20.4
2022-11-28T17:33:06.214Z,20.4
2022-11-28T17:34:49.901Z,20.4
2022-11-28T17:36:33.624Z,20.4
2022-11-28T17:38:17.324Z,20.4
2022-11-28T17:40:01.012Z,20.4
2022-11-28T17:41:44.737Z,20.4
2022-11-28T17:43:28.426Z,20.5
2022-11-28T17:45:12.122Z,20.5
2022-11-28T17:46:55.835Z,20.5
2022-11-28T17:48:39.535Z,20.5
2022-11-28T17:50:23.270Z,20.5
2022-11-28T17:52:06.923Z,20.6
2022-11-28T17:53:50.634Z,20.6
2022-11-28T17:55:34.362Z,20.6
2022-11-28T17:57:18.039Z,20.6
2022-11-28T17:59:01.737Z,20.6
2022-11-28T18:00:45.439Z,20.6
2022-11-28T18:02:29.145Z,20.7
2022-11-28T18:04:12.838Z,20.7
2022-11-28T18:05:56.569Z,20.7
2022-11-28T18:07:40.260Z,20.7
2022-11-28T18:09:23.960Z,20.7
2022-11-28T18:11:07.682Z,20.7
2022-11-28T18:12:51.351Z,20.7
2022-11-28T18:14:35.055Z,20.7
2022-11-28T18:16:18.772Z,20.7
2022-11-28T18:18:02.477Z,20.7
2022-11-28T18:19:46.156Z,20.7
2022-11-28T18:21:29.873Z,20.7
2022-11-28T18:23:13.571Z,20.7
2022-11-28T18:24:57.318Z,20.7
2022-11-28T18:26:40.980Z,20.8
2022-11-28T18:28:24.679Z,20.8
2022-11-28T18:30:08.380Z,20.8
2022-11-28T18:31:52.097Z,20.8
2022-11-28T18:33:35.799Z,20.8
2022-11-28T18:35:19.481Z,20.8
2022-11-28T18:37:03.241Z,20.8
2022-11-28T18:38:46.896Z,20.8
2022-11-28T18:40:30.601Z,20.8
2022-11-28T18:42:14.291Z,20.8
2022-11-28T18:43:58.017Z,20.8
2022-11-28T18:45:41.724Z,20.8
2022-11-28T18:47:25.401Z,20.9
2022-11-28T18:49:09.092Z,20.9
2022-11-28T18:50:52.793Z,20.9
2022-11-28T18:52:36.497Z,20.9
2022-11-28T18:54:20.200Z,20.9
2022-11-28T18:56:03.909Z,20.9
2022-11-28T18:57:47.616Z,20.9
2022-11-28T18:59:31.311Z,20.9
2022-11-28T19:01:15.063Z,20.9
2022-11-28T19:02:58.723Z,20.9
2022-11-28T19:04:42.432Z,20.9
2022-11-28T19:06:26.118Z,20.9
2022-11-28T19:08:09.835Z,20.9
2022-11-28T19:09:53.552Z,20.9
2022-11-28T19:11:37.209Z,20.9
2022-11-28T19:13:20.930Z,20.9
2022-11-28T19:15:04.637Z,20.9
2022-11-28T19:16:48.337Z,20.9
2022-11-28T19:18:32.027Z,20.9
2022-11-28T19:20:15.740Z,20.9
2022-11-28T19:21:59.422Z,20.9
2022-11-28T19:23:43.143Z,20.9
2022-11-28T19:25:26.836Z,20.9
2022-11-28T19:27:10.548Z,20.9
2022-11-28T19:28:54.248Z,20.9
2022-11-28T19:30:37.942Z,20.9
2022-11-28T19:32:21.659Z,20.9
2022-11-28T19:34:05.346Z,20.9
2022-11-28T19:35:49.065Z,20.9
2022-11-28T19:37:32.773Z,20.9
2022-11-28T19:39:16.465Z,20.9
2022-11-28T19:41:00.188Z,20.9
2022-11-28T19:42:43.856Z,20.9
2022-11-28T19:44:27.559Z,20.9
2022-11-28T19:46:11.272Z,20.9
2022-11-28T19:47:54.947Z,20.9
2022-11-28T19:49:38.648Z,20.9
2022-11-28T19:51:22.374Z,20.9
2022-11-28T19:53:06.118Z,20.9
2022-11-28T19:54:49.753Z,20.9
2022-11-28T19:56:33.468Z,20.9
2022-11-28T19:58:17.161Z,21
2022-11-28T20:00:00.898Z,20.9
2022-11-28T20:01:44.582Z,20.9
2022-11-28T20:03:28.269Z,21
2022-11-28T20:05:11.993Z,21
2022-11-28T20:06:55.675Z,21
2022-11-28T20:08:39.402Z,21
2022-11-28T20:10:23.084Z,21
2022-11-28T20:12:06.781Z,21
2022-11-28T20:13:50.482Z,21
2022-11-28T20:15:34.203Z,21
2022-11-28T20:17:17.923Z,21
2022-11-28T20:19:01.590Z,20.9
2022-11-28T20:20:45.308Z,21
2022-11-28T20:22:29.007Z,21
2022-11-28T20:24:12.723Z,20.9
2022-11-28T20:25:56.407Z,21
2022-11-28T20:27:40.137Z,20.9
2022-11-28T20:29:23.814Z,20.9
2022-11-28T20:31:07.506Z,20.9
2022-11-28T20:32:51.193Z,20.9
2022-11-28T20:34:34.908Z,20.9
2022-11-28T20:36:18.628Z,20.9
2022-11-28T20:38:02.310Z,20.9
2022-11-28T20:39:46.014Z,20.9
2022-11-28T20:41:29.738Z,20.9
2022-11-28T20:43:13.430Z,20.9
2022-11-28T20:44:57.150Z,20.9
2022-11-28T20:46:40.846Z,20.9
2022-11-28T20:48:24.532Z,20.9
2022-11-28T20:50:08.243Z,20.9
2022-11-28T20:51:51.927Z,20.9
2022-11-28T20:53:35.669Z,20.8
2022-11-28T20:57:03.049Z,20.8
2022-11-28T20:58:46.761Z,20.8
2022-11-28T21:00:30.466Z,20.8
2022-11-28T21:02:14.152Z,20.8
2022-11-28T21:03:57.833Z,20.8
2022-11-28T21:05:41.547Z,20.8
2022-11-28T21:07:25.238Z,20.8
2022-11-28T21:09:08.943Z,20.8
